Time;durP1;ratioP1;P1;durP2;ratioP2;P2;SDS_P1;SDS_P2;PMS_P1;PMS_P2;Temp;Humidity;BMP_temperature;BMP_pressure;BME280_temperature;BME280_humidity;BME280_pressure;Samples;Min_cycle;Max_cycle;Signal;HPM_P1;HPM_P2
2022/09/23 00:00:46;;;;;;;12.40;8.85;;;;;;;7.79;100.00;101739.63;5062179;28;20040;-68
2022/09/23 00:03:12;;;;;;;10.57;8.05;;;;;;;7.92;100.00;101730.28;5042905;28;20055;-69
2022/09/23 00:05:38;;;;;;;13.60;8.88;;;;;;;7.95;100.00;101734.63;5043608;28;20071;-68
2022/09/23 00:08:05;;;;;;;17.40;10.18;;;;;;;7.99;100.00;101730.91;5056940;28;20052;-68
2022/09/23 00:10:30;;;;;;;17.17;10.77;;;;;;;7.99;100.00;101730.91;5057872;28;20059;-68
2022/09/23 00:12:57;;;;;;;15.45;10.50;;;;;;;7.96;100.00;101733.69;5061212;28;20040;-68
2022/09/23 00:15:24;;;;;;;15.65;10.10;;;;;;;7.96;100.00;101729.22;5037924;28;20032;-67
2022/09/23 00:17:50;;;;;;;17.52;9.23;;;;;;;7.72;100.00;101736.31;5060692;28;20028;-68
2022/09/23 00:20:16;;;;;;;16.77;9.65;;;;;;;7.62;100.00;101731.41;5061123;28;20032;-68
2022/09/23 00:22:42;;;;;;;16.52;8.88;;;;;;;7.63;100.00;101733.16;5060608;28;20044;-69
2022/09/23 00:25:09;;;;;;;16.20;8.23;;;;;;;7.65;100.00;101731.31;5060346;28;20043;-68
2022/09/23 00:27:36;;;;;;;13.88;9.05;;;;;;;7.66;100.00;101733.03;5056354;28;20051;-69
2022/09/23 00:30:03;;;;;;;18.90;9.98;;;;;;;7.71;100.00;101726.63;5058306;28;20032;-68
2022/09/23 00:32:29;;;;;;;15.23;10.35;;;;;;;7.71;100.00;101729.28;5061475;28;20064;-69
2022/09/23 00:34:54;;;;;;;18.88;11.35;;;;;;;7.77;100.00;101722.88;5059386;28;20069;-67
2022/09/23 00:37:20;;;;;;;13.77;9.40;;;;;;;7.65;100.00;101729.53;5060994;28;20036;-68
2022/09/23 00:39:45;;;;;;;16.88;11.05;;;;;;;7.68;100.00;101723.22;5034599;28;20040;-68
2022/09/23 00:42:17;;;;;;;14.75;9.88;;;;;;;7.68;100.00;101729.44;5061481;28;20671;-68
2022/09/23 00:44:55;;;;;;;16.45;11.05;;;;;;;7.70;100.00;101727.56;5060415;28;20044;-68
2022/09/23 00:47:47;;;;;;;14.82;10.35;;;;;;;7.74;100.00;101730.97;5055987;28;20041;-69
2022/09/23 00:50:35;;;;;;;17.73;11.60;;;;;;;7.62;100.00;101718.16;5057344;28;20035;-67
2022/09/23 00:53:04;;;;;;;15.48;9.50;;;;;;;7.58;100.00;101719.19;5058963;28;20044;-67
2022/09/23 00:55:34;;;;;;;15.90;10.30;;;;;;;7.43;100.00;101726.81;5033707;28;20659;-67
2022/09/23 00:58:03;;;;;;;9.68;7.50;;;;;;;7.36;100.00;101714.66;5052596;28;20124;-67
2022/09/23 01:00:29;;;;;;;14.48;8.07;;;;;;;7.40;100.00;101713.63;5055756;28;20048;-69
2022/09/23 01:02:54;;;;;;;12.93;9.35;;;;;;;7.44;100.00;101715.25;5054554;28;20056;-69
2022/09/23 01:05:20;;;;;;;12.98;9.30;;;;;;;7.47;100.00;101712.47;5059730;28;20073;-68
2022/09/23 01:07:46;;;;;;;17.58;10.10;;;;;;;7.50;100.00;101715.03;5024701;28;20040;-67
2022/09/23 01:10:13;;;;;;;21.65;11.05;;;;;;;7.55;100.00;101712.22;5060510;28;20085;-69
2022/09/23 01:13:07;;;;;;;15.00;10.45;;;;;;;7.64;100.00;101714.53;5053829;28;20127;-68
2022/09/23 01:15:38;;;;;;;16.55;10.45;;;;;;;7.62;100.00;101704.88;5059638;28;20028;-68
2022/09/23 01:18:21;;;;;;;16.75;10.60;;;;;;;7.64;100.00;101703.06;5060174;28;20040;-68
2022/09/23 01:21:05;;;;;;;25.15;12.63;;;;;;;7.67;100.00;101700.25;5055125;28;20048;-68
2022/09/23 01:23:56;;;;;;;21.00;11.45;;;;;;;7.67;100.00;101714.41;5059817;28;20048;-68
2022/09/23 01:26:39;;;;;;;18.58;10.82;;;;;;;7.61;100.00;101711.13;5060304;28;20036;-68
2022/09/23 01:29:37;;;;;;;16.15;9.75;;;;;;;7.56;100.00;101707.75;5059234;28;20060;-68
2022/09/23 01:32:18;;;;;;;15.18;10.68;;;;;;;7.45;100.00;101698.41;5059840;28;20047;-67
2022/09/23 01:35:00;;;;;;;28.80;13.45;;;;;;;7.31;100.00;101694.53;5053949;28;20776;-68
2022/09/23 01:37:45;;;;;;;21.40;13.77;;;;;;;7.45;100.00;101698.41;5058689;28;20322;-68
2022/09/23 01:40:22;;;;;;;19.95;12.48;;;;;;;7.47;100.00;101696.56;5060246;28;20032;-66
2022/09/23 01:43:12;;;;;;;15.20;10.50;;;;;;;7.14;100.00;101689.84;5054625;28;20147;-67
2022/09/23 01:45:44;;;;;;;13.52;8.27;;;;;;;7.10;100.00;101690.84;5035457;28;20039;-68
2022/09/23 01:48:40;;;;;;;13.90;7.80;;;;;;;7.14;100.00;101679.22;5059012;28;20070;-69
2022/09/23 01:51:30;;;;;;;16.88;10.35;;;;;;;7.17;100.00;101681.75;5057356;28;20131;-68
2022/09/23 01:54:26;;;;;;;16.73;10.35;;;;;;;7.15;100.00;101689.78;5045196;28;20044;-68
2022/09/23 01:57:00;;;;;;;21.13;12.18;;;;;;;7.17;100.00;101681.75;5054165;28;20591;-67
2022/09/23 01:59:40;;;;;;;15.75;11.18;;;;;;;7.21;100.00;101681.59;5059028;28;20044;-68
2022/09/23 02:02:27;;;;;;;15.73;10.98;;;;;;;7.12;100.00;101678.38;5055675;28;20135;-68
2022/09/23 02:05:08;;;;;;;18.52;11.60;;;;;;;7.04;100.00;101683.13;5051281;28;20466;-68
2022/09/23 02:07:40;;;;;;;21.35;12.77;;;;;;;6.97;100.00;101680.66;5050428;28;20028;-68
2022/09/23 02:10:14;;;;;;;16.10;10.27;;;;;;;6.84;100.00;101676.72;5059049;28;20055;-67
2022/09/23 02:12:45;;;;;;;13.90;8.77;;;;;;;6.88;100.00;101670.41;5035099;28;20060;-67
2022/09/23 02:15:16;;;;;;;18.23;10.48;;;;;;;6.90;100.00;101673.00;5059367;28;20085;-68
2022/09/23 02:17:51;;;;;;;19.25;12.82;;;;;;;6.94;100.00;101670.19;5056688;28;20047;-67
2022/09/23 02:20:23;;;;;;;19.45;11.32;;;;;;;6.95;100.00;101671.03;5052194;28;20040;-69
2022/09/23 02:23:00;;;;;;;18.95;12.77;;;;;;;6.99;100.00;101676.19;5053910;28;20821;-69
2022/09/23 02:25:36;;;;;;;17.80;11.95;;;;;;;7.00;100.00;101677.06;5057459;28;20120;-68
2022/09/23 02:28:11;;;;;;;18.15;11.70;;;;;;;6.91;100.00;101678.22;5057784;28;20045;-70
2022/09/23 02:30:45;;;;;;;18.25;11.55;;;;;;;6.74;100.00;101672.66;5057024;28;20047;-69
2022/09/23 02:33:21;;;;;;;16.25;10.57;;;;;;;6.61;100.00;101668.69;5058534;28;20052;-67
2022/09/23 02:35:56;;;;;;;16.98;10.18;;;;;;;6.63;100.00;101672.16;5048845;28;20101;-69
2022/09/23 02:38:30;;;;;;;17.40;9.82;;;;;;;6.63;100.00;101667.72;5057702;28;20817;-69
2022/09/23 02:41:05;;;;;;;19.08;11.85;;;;;;;6.74;100.00;101673.53;5034737;28;20036;-68
2022/09/23 02:43:55;;;;;;;15.35;9.93;;;;;;;6.74;100.00;101662.91;5063790;28;20493;-69
2022/09/23 02:46:21;;;;;;;12.32;8.95;;;;;;;6.67;100.00;101656.06;5060393;28;20468;-69
2022/09/23 02:48:59;;;;;;;10.68;8.73;;;;;;;6.71;100.00;101657.72;5059301;28;20040;-67
2022/09/23 02:51:27;;;;;;;12.77;9.68;;;;;;;6.84;100.00;101658.16;5055343;28;20076;-70
2022/09/23 02:53:56;;;;;;;15.32;10.05;;;;;;;6.90;100.00;101657.09;5064419;28;20028;-68
2022/09/23 02:56:21;;;;;;;20.95;12.77;;;;;;;6.82;100.00;101649.38;5062365;28;20051;-70
2022/09/23 02:58:48;;;;;;;19.90;13.38;;;;;;;6.99;100.00;101654.13;5063132;28;20048;-67
2022/09/23 03:01:55;;;;;;;17.80;11.95;;;;;;;7.06;100.00;101650.31;5042539;28;20041;-69
2022/09/23 03:04:30;;;;;;;19.60;12.85;;;;;;;6.99;100.00;101647.03;5061331;28;20066;-69
2022/09/23 03:07:18;;;;;;;19.95;10.52;;;;;;;6.99;100.00;101643.50;5045172;28;20426;-68
2022/09/23 03:09:57;;;;;;;15.93;11.30;;;;;;;6.94;100.00;101633.06;5044201;28;20101;-70
2022/09/23 03:12:35;;;;;;;22.58;12.88;;;;;;;6.99;100.00;101632.91;5060925;28;20080;-68
2022/09/23 03:15:06;;;;;;;18.80;12.90;;;;;;;7.00;100.00;101635.50;5058554;28;20044;-69
2022/09/23 03:17:45;;;;;;;17.98;10.25;;;;;;;6.92;100.00;101634.03;5056583;28;20641;-70
2022/09/23 03:20:19;;;;;;;13.68;9.52;;;;;;;6.83;100.00;101626.38;5058547;28;20048;-69
2022/09/23 03:22:51;;;;;;;11.05;8.05;;;;;;;6.65;100.00;101625.25;5060818;28;20124;-70
2022/09/23 03:25:21;;;;;;;12.05;8.35;;;;;;;6.68;100.00;101627.81;5040337;28;20032;-69
2022/09/23 03:27:46;;;;;;;13.15;9.25;;;;;;;6.73;100.00;101626.75;5056414;28;20775;-69
2022/09/23 03:30:12;;;;;;;12.77;9.77;;;;;;;6.70;100.00;101623.31;5060276;28;20033;-68
2022/09/23 03:32:43;;;;;;;15.57;9.73;;;;;;;6.80;100.00;101616.78;5057341;28;20082;-69
2022/09/23 03:35:10;;;;;;;15.45;10.20;;;;;;;6.78;100.00;101615.06;5061228;28;20036;-69
2022/09/23 03:37:49;;;;;;;14.68;10.55;;;;;;;6.76;100.00;101615.13;5044104;28;20100;-69
2022/09/23 03:40:27;;;;;;;15.15;9.25;;;;;;;6.70;100.00;101612.72;5058763;28;20043;-70
2022/09/23 03:42:55;;;;;;;12.77;8.93;;;;;;;6.63;100.00;101611.22;5053529;28;20048;-69
2022/09/23 03:45:25;;;;;;;14.82;10.25;;;;;;;6.61;100.00;101610.38;5059955;28;20121;-69
2022/09/23 03:47:50;;;;;;;10.88;8.00;;;;;;;6.54;100.00;101614.16;5058035;28;20068;-69
2022/09/23 03:50:16;;;;;;;13.63;9.30;;;;;;;6.49;100.00;101606.38;5063437;28;20398;-67
2022/09/23 03:52:42;;;;;;;13.57;9.60;;;;;;;6.54;100.00;101601.78;5043862;28;20060;-69
2022/09/23 03:55:09;;;;;;;14.55;10.50;;;;;;;6.57;100.00;101596.34;5062392;28;20032;-69
2022/09/23 03:57:35;;;;;;;17.08;9.70;;;;;;;6.56;100.00;101591.97;5059734;28;20112;-68
2022/09/23 04:00:01;;;;;;;14.88;10.65;;;;;;;6.55;100.00;101589.41;5043927;28;20051;-69
2022/09/23 04:02:36;;;;;;;15.30;10.02;;;;;;;6.57;100.00;101584.91;5061820;28;20563;-68
2022/09/23 04:05:02;;;;;;;16.23;10.68;;;;;;;6.57;100.00;101591.06;5058621;28;20033;-69
2022/09/23 04:07:28;;;;;;;17.90;10.32;;;;;;;6.52;100.00;101590.34;5043372;28;20036;-68
2022/09/23 04:09:54;;;;;;;17.58;10.50;;;;;;;6.52;100.00;101584.19;5061085;28;20035;-68
2022/09/23 04:12:19;;;;;;;16.30;10.15;;;;;;;6.39;100.00;101584.63;5056912;28;20450;-69
2022/09/23 04:14:45;;;;;;;15.05;9.60;;;;;;;6.33;100.00;101590.16;5054768;28;20102;-70
2022/09/23 04:17:11;;;;;;;17.60;10.45;;;;;;;6.40;100.00;101591.66;5061967;28;20126;-68
2022/09/23 04:19:37;;;;;;;16.88;11.27;;;;;;;6.47;100.00;101598.47;5061061;28;20033;-68
2022/09/23 04:22:03;;;;;;;16.60;10.20;;;;;;;6.54;100.00;101600.91;5062371;28;20780;-69
2022/09/23 04:24:29;;;;;;;18.67;11.45;;;;;;;6.57;100.00;101600.78;5043502;28;20040;-69
2022/09/23 04:26:55;;;;;;;20.60;12.00;;;;;;;6.70;100.00;101595.03;5061060;28;20072;-69
2022/09/23 04:29:22;;;;;;;15.30;10.55;;;;;;;6.64;100.00;101592.59;5061761;28;20109;-69
2022/09/23 04:31:48;;;;;;;18.95;11.63;;;;;;;6.53;100.00;101593.91;5035254;28;20393;-68
2022/09/23 04:34:16;;;;;;;17.52;11.45;;;;;;;6.52;100.00;101592.13;5052368;28;20036;-69
2022/09/23 04:36:44;;;;;;;15.40;9.80;;;;;;;6.54;100.00;101595.63;5058474;28;20037;-70
2022/09/23 04:39:10;;;;;;;20.48;11.80;;;;;;;6.51;100.00;101590.41;5057974;28;20061;-70
2022/09/23 04:41:35;;;;;;;16.98;11.68;;;;;;;6.58;100.00;101586.66;5061634;28;20092;-68
2022/09/23 04:44:01;;;;;;;20.05;12.40;;;;;;;6.53;100.00;101591.25;5061267;28;20084;-69
2022/09/23 04:46:26;;;;;;;18.40;11.77;;;;;;;6.63;100.00;101595.31;5060525;28;20040;-68
2022/09/23 04:48:52;;;;;;;21.52;11.90;;;;;;;6.64;100.00;101583.78;5058368;28;20437;-71
2022/09/23 04:51:20;;;;;;;16.88;10.48;;;;;;;6.56;100.00;101586.69;5041750;28;20028;-68
2022/09/23 04:53:47;;;;;;;15.73;9.10;;;;;;;6.50;100.00;101592.19;5037139;28;20072;-69
2022/09/23 04:56:15;;;;;;;13.80;9.07;;;;;;;6.47;100.00;101587.84;5060213;28;20037;-70
2022/09/23 04:58:42;;;;;;;11.68;8.27;;;;;;;6.49;100.00;101588.69;5054747;28;20048;-68
2022/09/23 05:01:16;;;;;;;13.15;8.45;;;;;;;6.43;100.00;101591.56;5060336;28;20062;-67
2022/09/23 05:03:43;;;;;;;17.40;9.27;;;;;;;6.39;100.00;101592.56;5026213;28;20055;-69
2022/09/23 05:06:12;;;;;;;14.05;10.05;;;;;;;6.44;100.00;101598.59;5060011;28;20040;-68
2022/09/23 05:08:38;;;;;;;13.05;8.63;;;;;;;6.41;100.00;101595.16;5059893;28;20505;-70
2022/09/23 05:11:04;;;;;;;13.27;8.98;;;;;;;6.48;100.00;101584.31;5059062;28;20040;-68
2022/09/23 05:13:31;;;;;;;18.05;10.55;;;;;;;6.57;100.00;101576.94;5061246;28;20094;-69
2022/09/23 05:16:11;;;;;;;22.23;12.13;;;;;;;6.62;100.00;101575.88;5044159;28;20063;-70
2022/09/23 05:18:42;;;;;;;15.10;10.73;;;;;;;6.77;100.00;101581.53;5042713;28;20105;-69
2022/09/23 05:21:17;;;;;;;16.52;11.57;;;;;;;6.72;100.00;101582.56;5042271;28;20767;-70
2022/09/23 05:23:53;;;;;;;17.42;11.30;;;;;;;6.79;100.00;101580.59;5041203;28;20040;-69
2022/09/23 05:26:19;;;;;;;16.90;11.45;;;;;;;6.87;100.00;101586.47;5059062;28;20047;-70
2022/09/23 05:28:44;;;;;;;18.52;11.60;;;;;;;6.78;100.00;101586.81;5058867;28;20044;-70
2022/09/23 05:31:14;;;;;;;18.40;11.20;;;;;;;6.77;100.00;101593.00;5058925;28;20793;-69
2022/09/23 05:33:41;;;;;;;18.65;11.38;;;;;;;6.83;100.00;101586.63;5055373;28;20037;-68
2022/09/23 05:36:06;;;;;;;16.38;10.95;;;;;;;6.90;100.00;101590.81;5059058;28;20052;-70
2022/09/23 05:38:33;;;;;;;17.92;11.82;;;;;;;6.95;100.00;101584.41;5060686;28;20039;-69
2022/09/23 05:41:01;;;;;;;20.42;11.35;;;;;;;7.07;100.00;101580.44;5055208;28;20123;-70
2022/09/23 05:43:27;;;;;;;16.88;10.05;;;;;;;7.18;100.00;101591.53;5039094;28;20037;-70
2022/09/23 05:46:02;;;;;;;14.95;10.15;;;;;;;7.26;100.00;101593.88;5054571;28;20042;-68
2022/09/23 05:48:30;;;;;;;15.93;10.95;;;;;;;7.36;100.00;101597.06;5058907;28;20044;-70
2022/09/23 05:50:56;;;;;;;17.65;11.07;;;;;;;7.42;100.00;101587.06;5060171;28;20040;-68
2022/09/23 05:53:21;;;;;;;25.83;12.73;;;;;;;7.40;100.00;101588.06;5052368;28;20040;-70
2022/09/23 05:55:47;;;;;;;15.40;9.98;;;;;;;7.47;100.00;101590.41;5052755;28;20025;-67
2022/09/23 05:58:13;;;;;;;19.15;10.60;;;;;;;7.49;100.00;101587.72;5059507;28;20408;-68
2022/09/23 06:00:42;;;;;;;19.60;10.70;;;;;;;7.51;100.00;101592.03;5058605;28;20053;-69
2022/09/23 06:03:13;;;;;;;14.38;8.98;;;;;;;7.49;100.00;101585.06;5040286;28;20044;-70
2022/09/23 06:05:39;;;;;;;15.65;11.02;;;;;;;7.64;100.00;101588.91;5058324;28;20082;-69
2022/09/23 06:08:06;;;;;;;17.50;10.40;;;;;;;7.71;100.00;101590.38;5050436;28;20175;-67
2022/09/23 06:10:36;;;;;;;15.45;10.73;;;;;;;7.87;100.00;101596.81;5053123;28;20113;-69
2022/09/23 06:13:01;;;;;;;21.48;10.98;;;;;;;7.84;100.00;101602.25;5054766;28;20040;-69
2022/09/23 06:15:26;;;;;;;16.73;11.18;;;;;;;8.05;100.00;101597.88;5062753;28;20068;-70
2022/09/23 06:17:52;;;;;;;19.67;12.23;;;;;;;8.20;100.00;101588.41;5036687;28;20040;-70
2022/09/23 06:20:17;;;;;;;15.38;11.20;;;;;;;8.39;100.00;101589.41;5058431;28;20051;-69
2022/09/23 06:22:43;;;;;;;20.45;12.20;;;;;;;8.73;100.00;101587.94;5062324;28;20048;-68
2022/09/23 06:25:08;;;;;;;18.83;11.52;;;;;;;8.96;100.00;101585.13;5041179;28;20043;-70
2022/09/23 06:27:34;;;;;;;34.42;13.43;;;;;;;9.07;100.00;101582.84;5061777;28;20040;-70
2022/09/23 06:30:01;;;;;;;17.17;11.15;;;;;;;9.08;100.00;101589.03;5063273;28;20043;-67
2022/09/23 06:32:27;;;;;;;21.00;11.00;;;;;;;9.24;100.00;101591.88;5044854;28;20350;-68
2022/09/23 06:34:52;;;;;;;16.20;11.68;;;;;;;9.18;100.00;101590.34;5044673;28;20037;-70
2022/09/23 06:37:18;;;;;;;17.73;12.05;;;;;;;9.37;100.00;101590.38;5043801;28;20055;-68
2022/09/23 06:39:43;;;;;;;18.10;10.95;;;;;;;9.28;100.00;101593.44;5056502;28;20048;-69
2022/09/23 06:42:09;;;;;;;17.85;10.75;;;;;;;9.38;100.00;101593.88;5062471;28;20051;-68
2022/09/23 06:44:34;;;;;;;19.75;11.95;;;;;;;9.47;100.00;101589.00;5055257;28;20037;-69
2022/09/23 06:46:59;;;;;;;19.50;11.48;;;;;;;9.58;100.00;101586.69;5057122;28;20043;-70
2022/09/23 06:49:25;;;;;;;21.77;11.50;;;;;;;9.72;100.00;101580.72;5062844;28;20485;-70
2022/09/23 06:51:50;;;;;;;17.75;11.02;;;;;;;9.82;100.00;101581.13;5061710;28;20812;-68
2022/09/23 06:54:16;;;;;;;19.48;12.05;;;;;;;10.11;100.00;101580.59;5043244;28;20049;-69
2022/09/23 06:56:43;;;;;;;19.42;11.00;;;;;;;10.23;100.00;101584.44;5061636;28;20062;-68
2022/09/23 06:59:11;;;;;;;17.42;10.30;;;;;;;10.36;100.00;101579.38;5060171;28;20111;-69
2022/09/23 07:01:37;;;;;;;18.08;10.77;;;;;;;10.40;100.00;101588.09;5061164;28;20047;-70
2022/09/23 07:04:03;;;;;;;14.88;10.15;;;;;;;10.48;100.00;101580.56;5043486;28;20045;-68
2022/09/23 07:06:28;;;;;;;23.05;10.05;;;;;;;10.45;100.00;101586.06;5060702;28;20071;-70
2022/09/23 07:08:53;;;;;;;14.30;9.73;;;;;;;10.42;100.00;101578.22;5062759;28;20085;-70
2022/09/23 07:11:21;;;;;;;17.25;9.75;;;;;;;10.49;100.00;101576.94;5061092;28;20045;-69
2022/09/23 07:13:47;;;;;;;15.18;9.20;;;;;;;10.62;100.00;101576.25;5058751;28;20128;-69
2022/09/23 07:16:12;;;;;;;16.70;9.60;;;;;;;10.79;100.00;101579.84;5062050;28;20785;-69
2022/09/23 07:18:39;;;;;;;20.55;9.80;;;;;;;10.89;100.00;101581.06;5044144;28;20067;-69
2022/09/23 07:21:23;;;;;;;15.15;9.90;;;;;;;11.07;100.00;101579.25;5061254;28;20040;-70
2022/09/23 07:23:50;;;;;;;14.13;8.57;;;;;;;11.34;100.00;101580.41;5061074;28;20136;-70
2022/09/23 07:26:17;;;;;;;14.80;8.07;;;;;;;11.28;100.00;101587.91;5041293;28;20048;-70
2022/09/23 07:28:44;;;;;;;20.98;9.77;;;;;;;11.40;100.00;101574.75;5059991;28;20764;-69
2022/09/23 07:31:12;;;;;;;14.85;8.50;;;;;;;11.41;100.00;101580.94;5060737;28;20028;-70
2022/09/23 07:33:42;;;;;;;12.82;8.90;;;;;;;11.50;100.00;101583.13;5057596;28;20033;-69
2022/09/23 07:36:13;;;;;;;13.73;8.98;;;;;;;11.73;100.00;101570.28;5062761;28;20396;-70
2022/09/23 07:38:39;;;;;;;24.27;10.70;;;;;;;11.61;100.00;101570.03;5060916;28;20109;-70
2022/09/23 07:41:09;;;;;;;11.32;8.18;;;;;;;11.52;100.00;101573.19;5061700;28;20591;-70
2022/09/23 07:43:36;;;;;;;13.13;8.25;;;;;;;11.60;100.00;101570.97;5040207;28;20660;-69
2022/09/23 07:46:09;;;;;;;13.00;7.93;;;;;;;11.85;100.00;101566.94;5055901;28;20778;-68
2022/09/23 07:48:35;;;;;;;12.18;8.57;;;;;;;12.04;100.00;101570.25;5059862;28;20369;-70
2022/09/23 07:51:08;;;;;;;13.95;8.13;;;;;;;11.78;100.00;101565.53;5058116;28;20044;-70
2022/09/23 07:53:33;;;;;;;15.38;7.70;;;;;;;11.78;100.00;101568.19;5060456;28;20048;-69
2022/09/23 07:55:59;;;;;;;13.07;8.48;;;;;;;11.96;100.00;101571.69;5061214;28;20047;-70
2022/09/23 07:58:25;;;;;;;12.73;8.25;;;;;;;12.09;100.00;101567.31;5060543;28;20523;-69
2022/09/23 08:00:52;;;;;;;12.50;7.70;;;;;;;12.24;100.00;101574.44;5059157;28;20614;-68
2022/09/23 08:03:18;;;;;;;17.60;8.27;;;;;;;12.39;100.00;101570.88;5061020;28;20048;-68
2022/09/23 08:05:45;;;;;;;12.18;8.02;;;;;;;12.91;98.63;101569.56;5060907;28;20101;-70
2022/09/23 08:08:12;;;;;;;11.43;7.75;;;;;;;12.82;97.74;101568.31;5056745;28;20136;-69
2022/09/23 08:10:38;;;;;;;13.93;7.88;;;;;;;12.95;98.03;101563.03;5054091;28;20119;-69
2022/09/23 08:13:04;;;;;;;10.00;7.50;;;;;;;13.27;98.38;101563.75;5054168;28;20599;-70
2022/09/23 08:15:30;;;;;;;14.27;8.23;;;;;;;13.17;95.12;101578.66;5061201;28;20032;-69
2022/09/23 08:17:59;;;;;;;11.43;7.65;;;;;;;13.27;95.09;101570.94;5041175;28;20032;-69
2022/09/23 08:20:43;;;;;;;10.55;7.70;;;;;;;13.37;96.77;101575.63;5062733;28;20033;-69
2022/09/23 08:23:12;;;;;;;10.20;7.90;;;;;;;13.35;94.41;101571.28;5061885;28;20036;-71
2022/09/23 08:25:38;;;;;;;13.43;7.78;;;;;;;13.29;94.96;101569.88;5057695;28;20040;-67
2022/09/23 08:28:03;;;;;;;12.85;7.60;;;;;;;13.43;93.06;101569.00;5061538;28;20063;-69
2022/09/23 08:30:29;;;;;;;14.35;7.95;;;;;;;13.46;95.14;101568.81;5062444;28;20055;-69
2022/09/23 08:32:55;;;;;;;16.33;7.53;;;;;;;13.90;92.03;101568.59;5062414;28;20454;-69
2022/09/23 08:35:20;;;;;;;11.82;7.63;;;;;;;13.85;90.47;101570.72;5058951;28;20142;-68
2022/09/23 08:37:46;;;;;;;10.70;7.80;;;;;;;14.26;89.65;101575.19;5062480;28;20499;-67
2022/09/23 08:40:12;;;;;;;13.63;8.63;;;;;;;14.19;89.55;101573.84;5036714;28;20059;-68
2022/09/23 08:42:42;;;;;;;15.38;8.13;;;;;;;14.49;88.65;101568.28;5056467;28;20097;-67
2022/09/23 08:45:24;;;;;;;12.65;7.43;;;;;;;14.64;88.11;101563.69;5043867;28;20044;-66
2022/09/23 08:48:09;;;;;;;13.60;7.22;;;;;;;14.96;86.46;101572.19;5057610;28;20048;-69
2022/09/23 08:50:46;;;;;;;13.38;7.40;;;;;;;14.91;84.02;101577.00;5053877;28;20130;-68
2022/09/23 08:53:35;;;;;;;15.48;7.90;;;;;;;15.00;84.32;101571.00;5041473;28;20040;-70
2022/09/23 08:56:16;;;;;;;11.05;7.32;;;;;;;15.22;84.56;101579.28;5060641;28;20079;-77
2022/09/23 08:59:06;;;;;;;12.32;7.38;;;;;;;14.66;83.38;101570.69;5022282;28;20044;-70
2022/09/23 09:01:45;;;;;;;10.35;7.25;;;;;;;15.13;81.61;101571.88;5044156;28;20044;-73
2022/09/23 09:04:35;;;;;;;12.13;7.65;;;;;;;15.03;80.17;101562.75;5059778;28;20100;-70
2022/09/23 09:07:06;;;;;;;14.88;8.43;;;;;;;15.15;82.19;101577.97;5058295;28;20135;-72
2022/09/23 09:09:35;;;;;;;10.82;7.47;;;;;;;15.27;84.93;101568.22;5042384;28;20040;-72
2022/09/23 09:12:39;;;;;;;9.93;7.68;;;;;;;15.15;83.31;101569.91;5060293;28;20112;-72
2022/09/23 09:15:22;;;;;;;10.25;7.20;;;;;;;15.52;84.43;101567.31;5051207;28;20037;-71
2022/09/23 09:18:08;;;;;;;8.60;6.50;;;;;;;15.31;84.37;101567.00;5026852;28;20039;-71
2022/09/23 09:20:53;;;;;;;10.90;7.18;;;;;;;15.49;81.77;101556.75;5053914;28;20115;-72
2022/09/23 09:23:39;;;;;;;10.65;7.82;;;;;;;15.64;82.48;101554.81;5055878;28;20032;-73
2022/09/23 09:26:10;;;;;;;13.63;7.13;;;;;;;15.76;81.04;101554.78;5034046;28;20552;-74
2022/09/23 09:28:58;;;;;;;11.88;7.18;;;;;;;15.80;79.78;101553.56;5058291;28;20071;-69
2022/09/23 09:31:42;;;;;;;13.73;7.63;;;;;;;15.91;81.45;101549.22;5052638;28;20580;-68
2022/09/23 09:34:23;;;;;;;11.10;7.47;;;;;;;15.94;79.53;101549.00;5038633;28;20037;-68
2022/09/23 09:37:07;;;;;;;11.45;7.82;;;;;;;15.91;78.59;101541.16;5057760;28;20043;-68
2022/09/23 09:39:33;;;;;;;12.90;7.50;;;;;;;16.01;81.00;101539.47;5034333;28;20040;-68
2022/09/23 09:41:59;;;;;;;10.77;6.75;;;;;;;16.02;78.14;101541.22;5058448;28;20043;-69
2022/09/23 09:44:34;;;;;;;12.38;7.65;;;;;;;16.31;77.02;101539.88;5058606;28;20040;-67
2022/09/23 09:47:30;;;;;;;11.40;7.32;;;;;;;16.81;75.25;101542.31;5055197;28;20044;-69
2022/09/23 09:50:10;;;;;;;13.68;7.00;;;;;;;16.79;77.19;101526.31;5058601;28;20048;-67
2022/09/23 09:52:35;;;;;;;14.48;6.82;;;;;;;16.58;76.51;101534.19;5057135;28;20047;-69
2022/09/23 09:55:13;;;;;;;16.58;6.45;;;;;;;16.43;75.74;101534.53;5058978;28;20036;-67
2022/09/23 09:57:43;;;;;;;13.52;7.18;;;;;;;16.31;78.37;101529.13;5057151;28;20040;-68
2022/09/23 10:00:42;;;;;;;13.38;6.88;;;;;;;16.55;78.63;101528.19;5055956;28;20041;-68
2022/09/23 10:03:13;;;;;;;9.48;6.88;;;;;;;16.99;74.14;101513.94;5039093;28;20048;-69
2022/09/23 10:05:51;;;;;;;12.20;7.13;;;;;;;16.43;74.06;101518.38;5053395;28;20797;-69
2022/09/23 10:08:34;;;;;;;10.63;6.70;;;;;;;16.82;73.88;101517.13;5040343;28;20024;-68
2022/09/23 10:11:11;;;;;;;11.40;6.82;;;;;;;16.41;72.26;101525.69;5055806;28;20043;-69
2022/09/23 10:13:37;;;;;;;15.30;7.38;;;;;;;16.87;74.55;101514.03;5056938;28;20041;-68
2022/09/23 10:16:03;;;;;;;11.60;7.18;;;;;;;17.55;74.27;101502.25;5058468;28;20045;-69
2022/09/23 10:18:37;;;;;;;14.93;7.22;;;;;;;17.28;74.26;101506.22;5058406;28;20052;-67
2022/09/23 10:21:14;;;;;;;11.98;6.85;;;;;;;17.29;76.22;101507.94;5037241;28;20059;-68
2022/09/23 10:23:45;;;;;;;8.82;6.32;;;;;;;17.53;74.34;101507.78;5056984;28;20056;-68
2022/09/23 10:26:14;;;;;;;9.45;6.40;;;;;;;17.67;71.89;101514.75;5053639;28;20039;-69
2022/09/23 10:28:47;;;;;;;10.55;6.53;;;;;;;17.12;72.54;101511.13;5051050;28;20049;-68
2022/09/23 10:31:16;;;;;;;13.35;7.10;;;;;;;17.78;71.34;101511.19;5057115;28;20036;-69
2022/09/23 10:33:48;;;;;;;11.13;6.95;;;;;;;17.95;70.68;101521.41;5040206;28;20119;-69
2022/09/23 10:36:17;;;;;;;11.25;6.32;;;;;;;17.54;71.05;101516.72;5057662;28;20059;-68
2022/09/23 10:38:44;;;;;;;11.23;6.55;;;;;;;17.72;70.14;101522.41;5057339;28;20032;-72
2022/09/23 10:47:13;;;;;;;8.07;6.25;;;;;;;18.59;69.84;101515.09;5056648;28;20045;-74
2022/09/23 10:49:59;;;;;;;17.67;6.88;;;;;;;18.25;68.93;101511.72;5054786;28;20076;-73
2022/09/23 10:52:47;;;;;;;8.98;6.38;;;;;;;18.45;70.54;101510.00;5037498;28;20063;-73
2022/09/23 10:55:22;;;;;;;11.77;6.57;;;;;;;17.63;71.42;101509.72;5053420;28;20039;-73
2022/09/23 10:58:05;;;;;;;14.77;7.38;;;;;;;18.18;70.17;101497.03;5050139;28;20032;-73
2022/09/23 11:01:04;;;;;;;14.18;6.30;;;;;;;18.48;70.38;101502.50;5055926;28;20843;-74
2022/09/23 11:03:55;;;;;;;9.25;6.28;;;;;;;18.42;71.73;101503.00;5060892;28;20606;-73
2022/09/23 11:06:32;;;;;;;11.10;6.82;;;;;;;17.97;69.49;101502.38;5059703;28;20036;-73
2022/09/23 11:09:25;;;;;;;11.45;7.20;;;;;;;18.44;71.53;101506.47;5058474;28;20032;-73
2022/09/23 11:12:02;;;;;;;;;;;;;;;18.33;70.65;101501.13;5051915;28;20083;-73
2022/09/23 11:14:39;;;;;;;9.07;6.38;;;;;;;18.75;71.46;101504.69;5051138;28;19920;-73
2022/09/23 11:17:13;;;;;;;15.00;6.40;;;;;;;18.82;68.60;101494.19;5058180;28;20047;-74
2022/09/23 11:20:01;;;;;;;10.02;6.15;;;;;;;18.15;68.73;101491.88;5058477;28;20046;-74
2022/09/23 11:22:46;;;;;;;9.75;6.53;;;;;;;18.59;67.49;101491.63;5053430;28;20123;-74
2022/09/23 11:25:30;;;;;;;9.95;5.53;;;;;;;18.73;69.73;101497.72;5061154;28;20048;-74
2022/09/23 11:28:28;;;;;;;13.68;6.20;;;;;;;18.80;72.51;101488.91;5057360;28;20047;-75
2022/09/23 11:31:22;;;;;;;10.85;5.97;;;;;;;18.93;70.55;101488.72;5059306;28;20044;-74
2022/09/23 11:33:47;;;;;;;9.45;6.13;;;;;;;18.75;70.20;101490.31;5053940;28;20144;-75
2022/09/23 11:36:26;;;;;;;11.10;6.55;;;;;;;18.00;70.98;101489.50;5059738;28;20199;-73
2022/09/23 11:38:55;;;;;;;12.90;6.30;;;;;;;18.50;70.89;101481.59;5057865;28;20067;-75
2022/09/23 11:41:31;;;;;;;14.80;6.57;;;;;;;18.38;71.56;101490.78;5060405;28;20044;-75
2022/09/23 11:44:21;;;;;;;11.25;6.78;;;;;;;18.66;70.25;101485.69;5052678;28;20151;-73